sensor_id;sensor_type;location;lat;lon;timestamp;pressure;altitude;pressure_sealevel;temperature;humidity
77171;BME280;66144;50.020;14.422;2023-02-28T00:01:11;100013.41;;;1.09;64.31
77171;BME280;66144;50.020;14.422;2023-02-28T00:03:36;100012.28;;;1.11;64.10
77171;BME280;66144;50.020;14.422;2023-02-28T00:06:06;100002.31;;;1.08;64.24
77171;BME280;66144;50.020;14.422;2023-02-28T00:08:32;100008.41;;;1.07;63.82
77171;BME280;66144;50.020;14.422;2023-02-28T00:11:02;100009.22;;;1.08;64.33
77171;BME280;66144;50.020;14.422;2023-02-28T00:13:28;99996.16;;;1.01;64.13
77171;BME280;66144;50.020;14.422;2023-02-28T00:16:05;100004.16;;;0.98;63.40
77171;BME280;66144;50.020;14.422;2023-02-28T00:18:31;100004.97;;;0.90;63.65
77171;BME280;66144;50.020;14.422;2023-02-28T00:20:57;100000.31;;;0.94;64.26
77171;BME280;66144;50.020;14.422;2023-02-28T00:23:22;99992.47;;;1.03;64.45
77171;BME280;66144;50.020;14.422;2023-02-28T00:25:47;99995.09;;;1.12;63.51
77171;BME280;66144;50.020;14.422;2023-02-28T00:28:16;99999.75;;;1.16;64.08
77171;BME280;66144;50.020;14.422;2023-02-28T00:30:42;100001.38;;;1.17;63.72
77171;BME280;66144;50.020;14.422;2023-02-28T00:33:07;99996.22;;;1.17;63.71
77171;BME280;66144;50.020;14.422;2023-02-28T00:35:33;100000.25;;;1.12;64.45
77171;BME280;66144;50.020;14.422;2023-02-28T00:37:58;100010.53;;;1.20;63.84
77171;BME280;66144;50.020;14.422;2023-02-28T00:40:24;100000.25;;;1.20;64.01
77171;BME280;66144;50.020;14.422;2023-02-28T00:42:49;100003.63;;;1.20;64.02
77171;BME280;66144;50.020;14.422;2023-02-28T00:45:14;100009.56;;;1.13;64.45
77171;BME280;66144;50.020;14.422;2023-02-28T00:47:40;99998.47;;;1.12;64.40
77171;BME280;66144;50.020;14.422;2023-02-28T00:50:06;100004.53;;;1.03;64.74
77171;BME280;66144;50.020;14.422;2023-02-28T00:52:32;99999.38;;;1.03;64.48
77171;BME280;66144;50.020;14.422;2023-02-28T00:54:57;99998.56;;;1.02;64.14
77171;BME280;66144;50.020;14.422;2023-02-28T00:57:23;99998.06;;;0.99;64.77
77171;BME280;66144;50.020;14.422;2023-02-28T00:59:48;99998.41;;;0.96;65.07
77171;BME280;66144;50.020;14.422;2023-02-28T01:02:14;99999.69;;;1.00;65.20
77171;BME280;66144;50.020;14.422;2023-02-28T01:04:39;99991.22;;;1.08;64.65
77171;BME280;66144;50.020;14.422;2023-02-28T01:07:04;100003.22;;;0.99;64.65
77171;BME280;66144;50.020;14.422;2023-02-28T01:09:30;99995.66;;;0.97;64.75
77171;BME280;66144;50.020;14.422;2023-02-28T01:11:55;99994.25;;;1.03;64.18
77171;BME280;66144;50.020;14.422;2023-02-28T01:14:21;99998.56;;;0.94;64.71
77171;BME280;66144;50.020;14.422;2023-02-28T01:16:46;99994.69;;;0.98;64.58
77171;BME280;66144;50.020;14.422;2023-02-28T01:19:12;99996.34;;;1.08;64.39
77171;BME280;66144;50.020;14.422;2023-02-28T01:21:37;99991.34;;;1.06;65.08
77171;BME280;66144;50.020;14.422;2023-02-28T01:24:04;100000.09;;;1.13;65.07
77171;BME280;66144;50.020;14.422;2023-02-28T01:26:30;99992.00;;;1.08;63.92
77171;BME280;66144;50.020;14.422;2023-02-28T01:28:55;99995.50;;;0.99;64.93
77171;BME280;66144;50.020;14.422;2023-02-28T01:31:22;99995.03;;;1.03;65.07
77171;BME280;66144;50.020;14.422;2023-02-28T01:33:47;99990.69;;;0.96;65.19
77171;BME280;66144;50.020;14.422;2023-02-28T01:36:16;99996.78;;;0.95;64.92
77171;BME280;66144;50.020;14.422;2023-02-28T01:38:42;99996.44;;;0.90;64.70
77171;BME280;66144;50.020;14.422;2023-02-28T01:41:15;99998.06;;;0.99;64.99
77171;BME280;66144;50.020;14.422;2023-02-28T01:46:10;99992.34;;;0.79;65.62
77171;BME280;66144;50.020;14.422;2023-02-28T01:49:12;99991.91;;;0.84;65.64
77171;BME280;66144;50.020;14.422;2023-02-28T01:51:51;99981.97;;;0.89;64.76
77171;BME280;66144;50.020;14.422;2023-02-28T01:54:26;99979.09;;;0.92;65.45
77171;BME280;66144;50.020;14.422;2023-02-28T01:57:14;99978.59;;;0.96;65.10
77171;BME280;66144;50.020;14.422;2023-02-28T01:59:48;99981.66;;;0.92;65.46
77171;BME280;66144;50.020;14.422;2023-02-28T02:02:16;99976.38;;;0.93;65.34
77171;BME280;66144;50.020;14.422;2023-02-28T02:04:55;99987.41;;;0.86;65.40
77171;BME280;66144;50.020;14.422;2023-02-28T02:07:23;99973.91;;;0.84;65.28
77171;BME280;66144;50.020;14.422;2023-02-28T02:09:48;99982.56;;;0.83;65.83
77171;BME280;66144;50.020;14.422;2023-02-28T02:15:33;99978.38;;;0.82;65.68
77171;BME280;66144;50.020;14.422;2023-02-28T02:18:27;99965.53;;;0.82;66.11
77171;BME280;66144;50.020;14.422;2023-02-28T02:21:07;99973.69;;;0.77;65.28
77171;BME280;66144;50.020;14.422;2023-02-28T02:34:41;99973.91;;;0.84;64.77
77171;BME280;66144;50.020;14.422;2023-02-28T02:37:15;99970.66;;;0.74;64.61
77171;BME280;66144;50.020;14.422;2023-02-28T02:42:46;99980.81;;;0.83;64.67
77171;BME280;66144;50.020;14.422;2023-02-28T02:45:29;99969.84;;;0.81;64.46
77171;BME280;66144;50.020;14.422;2023-02-28T02:48:02;99973.88;;;0.76;64.68
77171;BME280;66144;50.020;14.422;2023-02-28T02:50:41;99975.16;;;0.80;64.35
77171;BME280;66144;50.020;14.422;2023-02-28T02:53:09;99969.34;;;0.78;63.73
77171;BME280;66144;50.020;14.422;2023-02-28T02:55:39;99969.09;;;0.55;63.25
77171;BME280;66144;50.020;14.422;2023-02-28T02:58:10;99974.25;;;0.63;63.25
77171;BME280;66144;50.020;14.422;2023-02-28T03:00:42;99971.41;;;0.66;63.36
77171;BME280;66144;50.020;14.422;2023-02-28T03:03:09;99975.72;;;0.65;62.94
77171;BME280;66144;50.020;14.422;2023-02-28T03:05:42;99977.75;;;0.54;62.93
77171;BME280;66144;50.020;14.422;2023-02-28T03:08:10;99978.97;;;0.67;62.90
77171;BME280;66144;50.020;14.422;2023-02-28T03:10:45;99972.63;;;0.54;63.11
77171;BME280;66144;50.020;14.422;2023-02-28T03:23:56;99984.31;;;0.48;61.69
77171;BME280;66144;50.020;14.422;2023-02-28T03:26:27;99975.69;;;0.57;62.45
77171;BME280;66144;50.020;14.422;2023-02-28T03:29:33;99976.16;;;0.53;62.25
77171;BME280;66144;50.020;14.422;2023-02-28T03:34:34;99983.59;;;0.38;61.91
77171;BME280;66144;50.020;14.422;2023-02-28T03:37:07;99982.63;;;0.39;62.49
77171;BME280;66144;50.020;14.422;2023-02-28T03:39:42;99980.75;;;0.23;61.80
77171;BME280;66144;50.020;14.422;2023-02-28T03:42:14;99984.19;;;0.32;62.86
77171;BME280;66144;50.020;14.422;2023-02-28T03:44:53;99987.66;;;0.23;62.94
77171;BME280;66144;50.020;14.422;2023-02-28T03:47:35;99978.03;;;0.25;62.21
77171;BME280;66144;50.020;14.422;2023-02-28T03:50:10;99979.66;;;0.26;62.23
77171;BME280;66144;50.020;14.422;2023-02-28T03:52:44;99988.75;;;0.20;62.73
77171;BME280;66144;50.020;14.422;2023-02-28T03:55:12;99981.91;;;0.29;62.38
77171;BME280;66144;50.020;14.422;2023-02-28T04:00:21;99987.91;;;0.12;63.39
77171;BME280;66144;50.020;14.422;2023-02-28T04:02:49;99986.66;;;0.16;63.51
77171;BME280;66144;50.020;14.422;2023-02-28T04:05:18;99994.34;;;0.16;63.72
77171;BME280;66144;50.020;14.422;2023-02-28T04:07:44;99983.94;;;-0.01;63.22
77171;BME280;66144;50.020;14.422;2023-02-28T04:10:11;99992.00;;;0.05;64.41
77171;BME280;66144;50.020;14.422;2023-02-28T04:12:36;99992.50;;;0.08;64.21
77171;BME280;66144;50.020;14.422;2023-02-28T04:15:02;99990.69;;;0.00;63.39
77171;BME280;66144;50.020;14.422;2023-02-28T04:17:27;99987.16;;;0.02;63.96
77171;BME280;66144;50.020;14.422;2023-02-28T04:19:54;99998.38;;;0.00;64.07
77171;BME280;66144;50.020;14.422;2023-02-28T04:22:21;99998.03;;;-0.05;64.78
77171;BME280;66144;50.020;14.422;2023-02-28T04:24:47;99995.53;;;-0.14;65.06
77171;BME280;66144;50.020;14.422;2023-02-28T04:27:12;99999.72;;;-0.13;64.21
77171;BME280;66144;50.020;14.422;2023-02-28T04:29:37;99995.09;;;-0.10;64.74
77171;BME280;66144;50.020;14.422;2023-02-28T04:32:04;99999.41;;;-0.10;64.80
77171;BME280;66144;50.020;14.422;2023-02-28T04:34:31;99998.84;;;-0.22;65.02
77171;BME280;66144;50.020;14.422;2023-02-28T04:36:56;99999.03;;;-0.33;65.46
77171;BME280;66144;50.020;14.422;2023-02-28T04:39:23;100002.94;;;-0.29;65.70
77171;BME280;66144;50.020;14.422;2023-02-28T04:41:49;100007.03;;;-0.36;65.72
77171;BME280;66144;50.020;14.422;2023-02-28T04:44:15;100000.44;;;-0.39;65.73
77171;BME280;66144;50.020;14.422;2023-02-28T04:46:41;100001.44;;;-0.49;65.69
77171;BME280;66144;50.020;14.422;2023-02-28T04:49:09;100001.44;;;-0.49;66.35
77171;BME280;66144;50.020;14.422;2023-02-28T04:51:36;100010.31;;;-0.61;66.58
77171;BME280;66144;50.020;14.422;2023-02-28T04:54:02;100014.97;;;-0.57;66.41
77171;BME280;66144;50.020;14.422;2023-02-28T04:56:28;100013.53;;;-0.59;66.52
77171;BME280;66144;50.020;14.422;2023-02-28T04:58:53;100017.06;;;-0.60;66.56
77171;BME280;66144;50.020;14.422;2023-02-28T05:01:25;100011.91;;;-0.60;66.38
77171;BME280;66144;50.020;14.422;2023-02-28T05:03:53;100017.53;;;-0.57;66.80
77171;BME280;66144;50.020;14.422;2023-02-28T05:06:19;100011.91;;;-0.60;66.57
77171;BME280;66144;50.020;14.422;2023-02-28T05:08:46;100017.72;;;-0.58;66.91
77171;BME280;66144;50.020;14.422;2023-02-28T05:13:44;100021.38;;;-0.61;66.39
77171;BME280;66144;50.020;14.422;2023-02-28T05:16:10;100017.88;;;-0.70;66.89
77171;BME280;66144;50.020;14.422;2023-02-28T05:18:35;100019.22;;;-0.65;66.51
77171;BME280;66144;50.020;14.422;2023-02-28T05:21:01;100022.06;;;-0.68;66.95
77171;BME280;66144;50.020;14.422;2023-02-28T05:23:27;100020.19;;;-0.66;66.27
77171;BME280;66144;50.020;14.422;2023-02-28T05:25:53;100024.09;;;-0.72;66.44
77171;BME280;66144;50.020;14.422;2023-02-28T05:28:19;100023.31;;;-0.73;66.81
77171;BME280;66144;50.020;14.422;2023-02-28T05:30:45;100026.25;;;-0.67;65.92
77171;BME280;66144;50.020;14.422;2023-02-28T05:33:11;100033.28;;;-0.70;66.10
77171;BME280;66144;50.020;14.422;2023-02-28T05:35:41;100033.56;;;-0.73;66.26
77171;BME280;66144;50.020;14.422;2023-02-28T05:38:08;100028.16;;;-0.70;66.26
77171;BME280;66144;50.020;14.422;2023-02-28T05:40:34;100036.66;;;-0.69;66.63
77171;BME280;66144;50.020;14.422;2023-02-28T05:43:00;100034.16;;;-0.79;66.37
77171;BME280;66144;50.020;14.422;2023-02-28T05:45:27;100041.25;;;-0.73;66.79
77171;BME280;66144;50.020;14.422;2023-02-28T05:47:53;100042.47;;;-0.77;66.87
77171;BME280;66144;50.020;14.422;2023-02-28T05:50:19;100044.28;;;-0.87;67.01
77171;BME280;66144;50.020;14.422;2023-02-28T05:52:49;100047.53;;;-0.85;66.96
77171;BME280;66144;50.020;14.422;2023-02-28T05:55:14;100048.19;;;-0.83;66.84
77171;BME280;66144;50.020;14.422;2023-02-28T05:57:40;100049.56;;;-0.88;67.02
77171;BME280;66144;50.020;14.422;2023-02-28T06:00:06;100055.50;;;-0.88;67.04
77171;BME280;66144;50.020;14.422;2023-02-28T06:02:31;100060.91;;;-0.91;67.60
77171;BME280;66144;50.020;14.422;2023-02-28T06:04:57;100053.75;;;-0.87;67.59
77171;BME280;66144;50.020;14.422;2023-02-28T06:07:22;100061.97;;;-0.84;67.57
77171;BME280;66144;50.020;14.422;2023-02-28T06:09:47;100064.38;;;-0.82;66.84
77171;BME280;66144;50.020;14.422;2023-02-28T06:12:13;100069.41;;;-0.90;67.11
77171;BME280;66144;50.020;14.422;2023-02-28T06:14:38;100067.91;;;-0.93;67.42
77171;BME280;66144;50.020;14.422;2023-02-28T06:17:04;100065.13;;;-0.99;67.51
77171;BME280;66144;50.020;14.422;2023-02-28T06:19:30;100067.16;;;-1.03;67.19
77171;BME280;66144;50.020;14.422;2023-02-28T06:21:56;100069.66;;;-0.93;67.83
77171;BME280;66144;50.020;14.422;2023-02-28T06:24:23;100073.19;;;-0.94;67.37
77171;BME280;66144;50.020;14.422;2023-02-28T06:26:50;100073.56;;;-0.89;66.94
77171;BME280;66144;50.020;14.422;2023-02-28T06:29:16;100088.28;;;-0.82;67.16
77171;BME280;66144;50.020;14.422;2023-02-28T06:31:46;100078.03;;;-0.82;66.78
77171;BME280;66144;50.020;14.422;2023-02-28T06:34:13;100083.44;;;-0.85;66.60
77171;BME280;66144;50.020;14.422;2023-02-28T06:36:39;100089.22;;;-0.83;67.00
77171;BME280;66144;50.020;14.422;2023-02-28T06:39:05;100096.72;;;-0.72;67.02
77171;BME280;66144;50.020;14.422;2023-02-28T06:41:31;100093.69;;;-0.85;66.53
77171;BME280;66144;50.020;14.422;2023-02-28T06:43:56;100092.81;;;-0.76;66.00
77171;BME280;66144;50.020;14.422;2023-02-28T06:46:23;100094.88;;;-0.79;66.19
77171;BME280;66144;50.020;14.422;2023-02-28T06:48:48;100099.41;;;-0.63;65.91
77171;BME280;66144;50.020;14.422;2023-02-28T06:51:17;100111.78;;;-0.49;65.40
77171;BME280;66144;50.020;14.422;2023-02-28T06:53:45;100097.34;;;-0.23;64.27
77171;BME280;66144;50.020;14.422;2023-02-28T06:56:13;100105.13;;;0.03;63.09
77171;BME280;66144;50.020;14.422;2023-02-28T06:58:39;100101.28;;;0.34;63.04
77171;BME280;66144;50.020;14.422;2023-02-28T07:01:06;100105.47;;;0.53;61.33
77171;BME280;66144;50.020;14.422;2023-02-28T07:03:32;100104.75;;;0.87;60.73
77171;BME280;66144;50.020;14.422;2023-02-28T07:05:57;100100.75;;;1.18;59.50
77171;BME280;66144;50.020;14.422;2023-02-28T07:08:23;100093.84;;;1.53;58.46
77171;BME280;66144;50.020;14.422;2023-02-28T07:10:56;100096.22;;;1.88;56.20
77171;BME280;66144;50.020;14.422;2023-02-28T07:13:22;100093.72;;;2.21;55.43
77171;BME280;66144;50.020;14.422;2023-02-28T07:16:04;100089.84;;;2.57;54.04
77171;BME280;66144;50.020;14.422;2023-02-28T07:18:31;100086.91;;;3.01;53.04
77171;BME280;66144;50.020;14.422;2023-02-28T07:20:56;100099.50;;;2.96;51.95
77171;BME280;66144;50.020;14.422;2023-02-28T07:23:22;100093.97;;;3.15;51.83
77171;BME280;66144;50.020;14.422;2023-02-28T07:25:49;100099.03;;;3.47;51.12
77171;BME280;66144;50.020;14.422;2023-02-28T07:28:15;100095.78;;;3.62;49.67
77171;BME280;66144;50.020;14.422;2023-02-28T07:30:40;100090.91;;;3.11;50.47
77171;BME280;66144;50.020;14.422;2023-02-28T07:33:06;100099.97;;;3.55;50.14
77171;BME280;66144;50.020;14.422;2023-02-28T07:35:31;100104.50;;;3.92;49.71
77171;BME280;66144;50.020;14.422;2023-02-28T07:37:58;100102.88;;;3.60;48.87
77171;BME280;66144;50.020;14.422;2023-02-28T07:40:24;100107.41;;;4.20;48.92
77171;BME280;66144;50.020;14.422;2023-02-28T07:42:50;100106.66;;;4.34;47.79
77171;BME280;66144;50.020;14.422;2023-02-28T07:45:15;100111.53;;;4.51;46.97
77171;BME280;66144;50.020;14.422;2023-02-28T07:47:41;100107.78;;;4.39;46.72
77171;BME280;66144;50.020;14.422;2023-02-28T07:50:09;100114.94;;;4.29;47.07
77171;BME280;66144;50.020;14.422;2023-02-28T07:52:36;100115.06;;;4.05;47.79
77171;BME280;66144;50.020;14.422;2023-02-28T07:55:02;100114.94;;;4.52;47.34
77171;BME280;66144;50.020;14.422;2023-02-28T07:57:28;100112.97;;;4.77;46.88
77171;BME280;66144;50.020;14.422;2023-02-28T07:59:53;100108.16;;;4.51;46.76
77171;BME280;66144;50.020;14.422;2023-02-28T08:02:18;100116.75;;;4.66;46.58
77171;BME280;66144;50.020;14.422;2023-02-28T08:04:44;100112.31;;;4.98;45.71
77171;BME280;66144;50.020;14.422;2023-02-28T08:07:12;100118.22;;;4.83;46.48
77171;BME280;66144;50.020;14.422;2023-02-28T08:09:39;100108.91;;;4.97;45.94
77171;BME280;66144;50.020;14.422;2023-02-28T08:12:04;100126.78;;;4.46;45.94
77171;BME280;66144;50.020;14.422;2023-02-28T08:14:30;100121.75;;;4.68;45.19
77171;BME280;66144;50.020;14.422;2023-02-28T08:16:55;100115.38;;;4.78;45.65
77171;BME280;66144;50.020;14.422;2023-02-28T08:19:21;100116.91;;;4.88;45.47
77171;BME280;66144;50.020;14.422;2023-02-28T08:21:46;100119.63;;;4.71;44.33
77171;BME280;66144;50.020;14.422;2023-02-28T08:24:14;100118.88;;;4.85;44.93
77171;BME280;66144;50.020;14.422;2023-02-28T08:26:39;100116.19;;;4.79;44.85
77171;BME280;66144;50.020;14.422;2023-02-28T08:29:05;100114.66;;;4.84;44.48
77171;BME280;66144;50.020;14.422;2023-02-28T08:31:30;100118.88;;;3.55;44.76
77171;BME280;66144;50.020;14.422;2023-02-28T08:33:55;100113.03;;;3.06;46.74
77171;BME280;66144;50.020;14.422;2023-02-28T08:36:25;100117.75;;;3.50;47.09
77171;BME280;66144;50.020;14.422;2023-02-28T08:38:51;100110.72;;;3.27;47.84
77171;BME280;66144;50.020;14.422;2023-02-28T08:41:16;100115.25;;;3.25;47.53
77171;BME280;66144;50.020;14.422;2023-02-28T08:43:41;100110.00;;;3.50;48.37
77171;BME280;66144;50.020;14.422;2023-02-28T08:46:07;100115.88;;;3.27;47.28
77171;BME280;66144;50.020;14.422;2023-02-28T08:48:33;100111.19;;;3.31;47.29
77171;BME280;66144;50.020;14.422;2023-02-28T08:51:04;100106.81;;;3.39;47.98
77171;BME280;66144;50.020;14.422;2023-02-28T08:53:30;100115.28;;;3.09;47.86
77171;BME280;66144;50.020;14.422;2023-02-28T08:56:01;100116.53;;;3.29;47.42
77171;BME280;66144;50.020;14.422;2023-02-28T08:58:28;100115.22;;;3.33;47.22
77171;BME280;66144;50.020;14.422;2023-02-28T09:00:54;100120.56;;;3.32;47.46
77171;BME280;66144;50.020;14.422;2023-02-28T09:03:20;100108.22;;;3.50;46.96
77171;BME280;66144;50.020;14.422;2023-02-28T09:05:56;100108.13;;;3.35;46.55
77171;BME280;66144;50.020;14.422;2023-02-28T09:08:23;100108.91;;;3.44;46.25
77171;BME280;66144;50.020;14.422;2023-02-28T09:10:48;100111.53;;;3.28;46.66
77171;BME280;66144;50.020;14.422;2023-02-28T09:13:14;100117.25;;;3.07;47.17
77171;BME280;66144;50.020;14.422;2023-02-28T09:15:39;100111.44;;;2.32;47.85
77171;BME280;66144;50.020;14.422;2023-02-28T09:18:04;100110.81;;;2.87;48.54
77171;BME280;66144;50.020;14.422;2023-02-28T09:20:30;100108.84;;;2.97;47.97
77171;BME280;66144;50.020;14.422;2023-02-28T09:22:55;100115.31;;;2.93;48.18
77171;BME280;66144;50.020;14.422;2023-02-28T09:25:20;100110.16;;;3.01;48.00
77171;BME280;66144;50.020;14.422;2023-02-28T09:27:46;100114.47;;;3.17;47.40
77171;BME280;66144;50.020;14.422;2023-02-28T09:30:12;100107.31;;;3.35;46.23
77171;BME280;66144;50.020;14.422;2023-02-28T09:32:37;100112.59;;;3.50;46.46
77171;BME280;66144;50.020;14.422;2023-02-28T09:35:03;100110.22;;;3.40;46.44
77171;BME280;66144;50.020;14.422;2023-02-28T09:37:29;100109.69;;;3.53;46.06
77171;BME280;66144;50.020;14.422;2023-02-28T09:39:56;100110.97;;;3.48;46.54
77171;BME280;66144;50.020;14.422;2023-02-28T09:42:22;100119.31;;;3.67;45.93
77171;BME280;66144;50.020;14.422;2023-02-28T09:44:51;100113.00;;;4.54;44.72
77171;BME280;66144;50.020;14.422;2023-02-28T09:50:22;100095.06;;;6.14;41.53
77171;BME280;66144;50.020;14.422;2023-02-28T09:52:55;100100.28;;;6.85;39.68
77171;BME280;66144;50.020;14.422;2023-02-28T09:55:45;100088.78;;;7.35;38.85
77171;BME280;66144;50.020;14.422;2023-02-28T09:58:31;100102.09;;;8.27;38.04
77171;BME280;66144;50.020;14.422;2023-02-28T10:01:12;100099.31;;;8.22;36.92
77171;BME280;66144;50.020;14.422;2023-02-28T10:06:49;100095.28;;;8.20;36.23
77171;BME280;66144;50.020;14.422;2023-02-28T10:09:25;100093.56;;;8.66;35.45
77171;BME280;66144;50.020;14.422;2023-02-28T10:11:54;100089.66;;;9.42;34.25
77171;BME280;66144;50.020;14.422;2023-02-28T10:14:24;100094.22;;;9.53;34.91
77171;BME280;66144;50.020;14.422;2023-02-28T10:19:26;100083.81;;;10.29;34.19
77171;BME280;66144;50.020;14.422;2023-02-28T10:22:10;100086.81;;;10.82;32.34
77171;BME280;66144;50.020;14.422;2023-02-28T10:24:43;100090.44;;;10.81;31.57
77171;BME280;66144;50.020;14.422;2023-02-28T10:29:46;100084.97;;;11.44;30.92
77171;BME280;66144;50.020;14.422;2023-02-28T10:32:20;100092.03;;;11.25;31.38
77171;BME280;66144;50.020;14.422;2023-02-28T10:34:57;100089.03;;;11.03;31.87
77171;BME280;66144;50.020;14.422;2023-02-28T10:37:24;100085.13;;;11.49;30.58
77171;BME280;66144;50.020;14.422;2023-02-28T10:39:50;100088.53;;;11.86;31.63
77171;BME280;66144;50.020;14.422;2023-02-28T10:42:27;100080.13;;;11.11;31.18
77171;BME280;66144;50.020;14.422;2023-02-28T10:45:13;100074.59;;;12.04;29.96
77171;BME280;66144;50.020;14.422;2023-02-28T10:47:53;100075.75;;;12.08;29.87
77171;BME280;66144;50.020;14.422;2023-02-28T10:50:55;100077.69;;;12.13;29.89
77171;BME280;66144;50.020;14.422;2023-02-28T10:53:30;100069.81;;;12.66;29.50
77171;BME280;66144;50.020;14.422;2023-02-28T10:56:03;100071.09;;;13.90;28.45
77171;BME280;66144;50.020;14.422;2023-02-28T10:58:32;100067.88;;;13.20;29.05
77171;BME280;66144;50.020;14.422;2023-02-28T11:01:13;100062.84;;;13.98;28.31
77171;BME280;66144;50.020;14.422;2023-02-28T11:03:39;100066.50;;;12.82;28.54
77171;BME280;66144;50.020;14.422;2023-02-28T11:06:08;100074.72;;;12.51;28.61
77171;BME280;66144;50.020;14.422;2023-02-28T11:08:45;100069.78;;;9.85;32.25
77171;BME280;66144;50.020;14.422;2023-02-28T11:11:11;100065.22;;;12.26;30.13
77171;BME280;66144;50.020;14.422;2023-02-28T11:13:37;100066.50;;;12.82;28.64
77171;BME280;66144;50.020;14.422;2023-02-28T11:16:07;100067.63;;;13.44;28.17
77171;BME280;66144;50.020;14.422;2023-02-28T11:18:52;100069.56;;;12.44;29.06
77171;BME280;66144;50.020;14.422;2023-02-28T11:21:27;100058.72;;;13.34;28.49
77171;BME280;66144;50.020;14.422;2023-02-28T11:24:02;100049.84;;;14.54;27.44
77171;BME280;66144;50.020;14.422;2023-02-28T11:26:44;100049.72;;;14.82;26.16
77171;BME280;66144;50.020;14.422;2023-02-28T11:34:29;100051.91;;;15.07;25.82
77171;BME280;66144;50.020;14.422;2023-02-28T11:36:56;100047.78;;;15.81;25.41
77171;BME280;66144;50.020;14.422;2023-02-28T11:39:23;100038.75;;;15.50;25.53
77171;BME280;66144;50.020;14.422;2023-02-28T11:44:39;100048.97;;;13.58;26.86
77171;BME280;66144;50.020;14.422;2023-02-28T11:47:17;100054.63;;;12.91;28.16
77171;BME280;66144;50.020;14.422;2023-02-28T11:50:12;100038.91;;;14.45;26.27
77171;BME280;66144;50.020;14.422;2023-02-28T11:52:56;100050.56;;;12.60;28.29
77171;BME280;66144;50.020;14.422;2023-02-28T11:55:35;100036.75;;;13.23;28.21
77171;BME280;66144;50.020;14.422;2023-02-28T12:11:52;100015.50;;;15.91;24.95
77171;BME280;66144;50.020;14.422;2023-02-28T12:17:02;100019.25;;;14.86;26.15
77171;BME280;66144;50.020;14.422;2023-02-28T12:27:27;100011.41;;;15.78;24.67
77171;BME280;66144;50.020;14.422;2023-02-28T12:30:04;100007.72;;;15.31;24.57
77171;BME280;66144;50.020;14.422;2023-02-28T12:32:37;100001.56;;;15.69;24.58
77171;BME280;66144;50.020;14.422;2023-02-28T12:37:58;100001.44;;;16.49;23.98
77171;BME280;66144;50.020;14.422;2023-02-28T12:40:33;100001.09;;;16.04;24.09
77171;BME280;66144;50.020;14.422;2023-02-28T12:43:07;100001.28;;;15.92;24.43
77171;BME280;66144;50.020;14.422;2023-02-28T12:45:42;99995.22;;;15.92;24.40
77171;BME280;66144;50.020;14.422;2023-02-28T12:48:12;100001.47;;;16.17;24.43
77171;BME280;66144;50.020;14.422;2023-02-28T12:50:40;100005.75;;;15.21;24.87
77171;BME280;66144;50.020;14.422;2023-02-28T12:56:07;99986.25;;;15.93;24.00
77171;BME280;66144;50.020;14.422;2023-02-28T12:58:45;99998.31;;;15.35;24.87
77171;BME280;66144;50.020;14.422;2023-02-28T13:09:18;99995.47;;;15.41;25.09
77171;BME280;66144;50.020;14.422;2023-02-28T13:11:51;99980.44;;;15.42;25.43
77171;BME280;66144;50.020;14.422;2023-02-28T13:14:34;99987.47;;;14.88;26.00
77171;BME280;66144;50.020;14.422;2023-02-28T13:19:35;99987.78;;;13.57;26.89
77171;BME280;66144;50.020;14.422;2023-02-28T13:22:01;99982.53;;;13.29;28.11
77171;BME280;66144;50.020;14.422;2023-02-28T13:24:43;100000.66;;;12.67;28.51
77171;BME280;66144;50.020;14.422;2023-02-28T13:29:43;100003.06;;;11.14;30.91
77171;BME280;66144;50.020;14.422;2023-02-28T13:34:46;100003.25;;;10.01;32.63
77171;BME280;66144;50.020;14.422;2023-02-28T13:39:59;100010.81;;;8.16;35.83
77171;BME280;66144;50.020;14.422;2023-02-28T13:47:43;100003.44;;;8.52;36.39
77171;BME280;66144;50.020;14.422;2023-02-28T14:09:15;99998.13;;;6.71;38.71
77171;BME280;66144;50.020;14.422;2023-02-28T14:11:44;100000.28;;;6.68;39.01
77171;BME280;66144;50.020;14.422;2023-02-28T14:17:06;100001.38;;;6.52;40.13
77171;BME280;66144;50.020;14.422;2023-02-28T14:19:36;99992.16;;;6.77;38.88
77171;BME280;66144;50.020;14.422;2023-02-28T14:33:38;99983.72;;;6.41;40.14
77171;BME280;66144;50.020;14.422;2023-02-28T14:36:35;99984.09;;;6.38;39.99
77171;BME280;66144;50.020;14.422;2023-02-28T14:39:06;99982.78;;;6.20;39.86
77171;BME280;66144;50.020;14.422;2023-02-28T14:41:35;99981.94;;;6.13;40.19
77171;BME280;66144;50.020;14.422;2023-02-28T14:44:12;99979.97;;;5.79;40.79
77171;BME280;66144;50.020;14.422;2023-02-28T14:46:39;99980.25;;;6.06;40.21
77171;BME280;66144;50.020;14.422;2023-02-28T14:49:07;99976.00;;;5.77;41.22
77171;BME280;66144;50.020;14.422;2023-02-28T14:51:38;99981.81;;;6.00;41.39
77171;BME280;66144;50.020;14.422;2023-02-28T14:54:04;99978.25;;;5.65;41.39
77171;BME280;66144;50.020;14.422;2023-02-28T14:56:49;99977.63;;;5.84;41.63
77171;BME280;66144;50.020;14.422;2023-02-28T15:01:48;99969.78;;;5.93;41.33
77171;BME280;66144;50.020;14.422;2023-02-28T15:04:22;99976.31;;;5.88;41.35
77171;BME280;66144;50.020;14.422;2023-02-28T15:07:09;99978.97;;;5.95;41.73
77171;BME280;66144;50.020;14.422;2023-02-28T15:09:35;99979.34;;;5.92;40.92
77171;BME280;66144;50.020;14.422;2023-02-28T15:12:01;99977.28;;;5.87;42.50
77171;BME280;66144;50.020;14.422;2023-02-28T15:14:26;99983.19;;;5.96;41.55
77171;BME280;66144;50.020;14.422;2023-02-28T15:16:58;99972.88;;;5.67;42.11
77171;BME280;66144;50.020;14.422;2023-02-28T15:19:30;99974.75;;;5.73;41.56
77171;BME280;66144;50.020;14.422;2023-02-28T15:22:14;99977.34;;;5.73;42.63
77171;BME280;66144;50.020;14.422;2023-02-28T15:24:45;99990.72;;;5.40;42.67
77171;BME280;66144;50.020;14.422;2023-02-28T15:27:27;99977.28;;;5.30;42.26
77171;BME280;66144;50.020;14.422;2023-02-28T15:29:57;99972.84;;;5.45;43.12